createdAt,value
2023-02-08T00:02:36.914Z,43.92
2023-02-08T00:05:47.731Z,36.28
2023-02-08T00:08:49.973Z,40.72
2023-02-08T00:11:53.552Z,38.00
2023-02-08T00:14:58.515Z,37.75
2023-02-08T00:18:04.182Z,40.05
2023-02-08T00:21:13.463Z,37.67
2023-02-08T00:24:15.322Z,39.03
2023-02-08T00:27:17.245Z,37.33
2023-02-08T00:30:21.844Z,38.30
2023-02-08T00:33:24.050Z,44.53
2023-02-08T00:36:31.682Z,42.85
2023-02-08T00:39:46.544Z,37.78
2023-02-08T00:42:48.401Z,40.50
2023-02-08T00:45:56.590Z,41.97
2023-02-08T00:48:59.579Z,30.58
2023-02-08T00:52:05.370Z,39.95
2023-02-08T00:55:08.901Z,38.30
2023-02-08T00:58:12.676Z,39.92
2023-02-08T01:01:16.975Z,38.10
2023-02-08T01:04:19.900Z,44.25
2023-02-08T01:07:23.089Z,37.15
2023-02-08T01:10:26.030Z,37.03
2023-02-08T01:13:27.823Z,42.78
2023-02-08T01:16:34.061Z,40.20
2023-02-08T01:19:37.012Z,35.75
2023-02-08T01:22:50.402Z,37.78
2023-02-08T01:25:52.172Z,35.45
2023-02-08T01:29:09.104Z,35.40
2023-02-08T01:32:14.366Z,35.13
2023-02-08T01:35:19.255Z,36.03
2023-02-08T01:38:47.774Z,36.65
2023-02-08T01:41:50.610Z,40.50
2023-02-08T01:45:36.256Z,37.00
2023-02-08T01:48:47.689Z,36.30
2023-02-08T01:51:59.319Z,35.38
2023-02-08T01:55:09.781Z,35.83
2023-02-08T01:58:44.719Z,37.78
2023-02-08T02:01:42.031Z,30.85
2023-02-08T02:04:57.321Z,37.20
2023-02-08T02:09:09.857Z,37.80
2023-02-08T02:11:43.624Z,37.70
2023-02-08T02:14:48.847Z,35.28
2023-02-08T02:17:52.789Z,36.03
2023-02-08T02:21:28.385Z,40.28
2023-02-08T02:25:06.357Z,35.33
2023-02-08T02:28:47.132Z,36.88
2023-02-08T02:32:09.394Z,37.38
2023-02-08T02:35:23.924Z,38.03
2023-02-08T02:39:11.959Z,35.35
2023-02-08T02:42:43.754Z,38.90
2023-02-08T02:45:55.177Z,39.40
2023-02-08T02:49:06.220Z,37.35
2023-02-08T02:52:18.370Z,38.13
2023-02-08T02:55:39.317Z,38.50
2023-02-08T02:58:51.288Z,40.13
2023-02-08T03:02:16.842Z,42.85
2023-02-08T03:09:43.877Z,41.75
2023-02-08T03:13:03.276Z,38.53
2023-02-08T03:19:54.398Z,39.17
2023-02-08T03:23:08.389Z,41.60
2023-02-08T03:26:43.819Z,38.70
2023-02-08T03:30:02.524Z,38.97
2023-02-08T03:33:14.994Z,34.05
2023-02-08T03:37:05.715Z,44.22
2023-02-08T03:43:23.736Z,41.10
2023-02-08T03:53:32.776Z,39.88
2023-02-08T03:54:14.663Z,43.72
2023-02-08T04:19:44.744Z,39.92
2023-02-08T04:23:19.164Z,45.72
2023-02-08T07:52:08.411Z,46.28
2023-02-08T08:03:04.571Z,52.03
2023-02-08T08:06:32.507Z,51.58
2023-02-08T08:09:37.342Z,47.90
2023-02-08T08:12:46.064Z,68.95
2023-02-08T08:19:04.573Z,45.30
2023-02-08T08:22:19.375Z,49.00
2023-02-08T08:25:31.050Z,45.55
2023-02-08T08:32:37.666Z,48.28
2023-02-08T08:35:43.597Z,47.92
2023-02-08T08:38:47.574Z,50.70
2023-02-08T08:41:49.388Z,49.85
2023-02-08T08:44:51.336Z,49.13
2023-02-08T08:47:54.239Z,42.30
2023-02-08T08:50:57.065Z,50.33
2023-02-08T08:54:02.565Z,47.30
2023-02-08T08:57:05.518Z,74.63
2023-02-08T09:00:11.063Z,51.80
2023-02-08T09:03:13.097Z,46.70
2023-02-08T09:06:14.983Z,46.22
2023-02-08T09:09:18.948Z,44.88
2023-02-08T09:12:23.315Z,52.08
2023-02-08T09:15:25.220Z,49.80
2023-02-08T09:18:27.158Z,44.00
2023-02-08T09:21:29.860Z,48.35
2023-02-08T09:24:33.344Z,45.92
2023-02-08T09:27:35.606Z,47.95
2023-02-08T09:30:37.422Z,42.28
2023-02-08T09:33:39.602Z,47.53
2023-02-08T09:36:42.520Z,48.15
2023-02-08T09:39:46.900Z,46.45
2023-02-08T09:42:57.427Z,45.13
2023-02-08T09:46:03.874Z,42.58
2023-02-08T09:49:14.276Z,40.70
2023-02-08T09:52:21.336Z,45.92
2023-02-08T09:55:30.819Z,40.35
2023-02-08T09:58:37.987Z,46.78
2023-02-08T10:01:39.797Z,41.70
2023-02-08T10:04:57.376Z,47.30
2023-02-08T10:08:00.706Z,43.33
2023-02-08T10:11:22.647Z,49.70
2023-02-08T10:14:41.563Z,47.22
2023-02-08T10:18:01.907Z,45.78
2023-02-08T10:21:22.140Z,45.13
2023-02-08T10:24:45.159Z,79.13
2023-02-08T10:28:05.464Z,49.67
2023-02-08T10:31:19.489Z,59.17
2023-02-08T10:34:36.802Z,55.22
2023-02-08T10:37:41.830Z,48.65
2023-02-08T10:40:45.325Z,46.15
2023-02-08T10:43:56.312Z,50.13
2023-02-08T10:47:09.540Z,52.13
2023-02-08T10:50:19.436Z,43.78
2023-02-08T10:53:21.590Z,46.75
2023-02-08T10:56:43.536Z,57.08
2023-02-08T10:59:52.889Z,41.50
2023-02-08T11:02:59.646Z,42.78
2023-02-08T11:06:01.460Z,54.35
2023-02-08T11:09:03.785Z,49.33
2023-02-08T11:12:06.147Z,41.58
2023-02-08T11:15:22.953Z,55.00
2023-02-08T11:18:27.693Z,43.75
2023-02-08T11:21:32.177Z,46.17
2023-02-08T11:24:38.851Z,43.60
2023-02-08T11:27:48.824Z,41.17
2023-02-08T11:31:00.905Z,36.88
2023-02-08T11:34:04.528Z,42.05
2023-02-08T11:37:15.507Z,40.83
2023-02-08T11:40:21.127Z,37.30
2023-02-08T11:43:25.083Z,41.25
2023-02-08T11:46:32.197Z,40.85
2023-02-08T11:49:38.563Z,39.60
2023-02-08T11:52:43.161Z,43.03
2023-02-08T11:55:45.168Z,37.17
2023-02-08T11:59:03.237Z,39.80
2023-02-08T12:02:36.953Z,39.42
2023-02-08T12:05:45.536Z,35.17
2023-02-08T12:08:55.766Z,29.38
2023-02-08T12:12:09.339Z,37.78
2023-02-08T12:15:22.163Z,35.92
2023-02-08T12:18:52.817Z,38.15
2023-02-08T12:22:00.540Z,34.50
2023-02-08T12:25:20.839Z,36.00
2023-02-08T12:28:36.903Z,33.08
2023-02-08T12:31:50.256Z,31.10
2023-02-08T12:35:29.500Z,32.92
2023-02-08T12:39:18.376Z,33.53
2023-02-08T12:42:50.849Z,34.38
2023-02-08T12:46:08.160Z,31.23
2023-02-08T12:49:33.180Z,34.65
2023-02-08T12:52:41.030Z,32.50
2023-02-08T12:55:44.795Z,30.33
2023-02-08T12:58:50.680Z,28.63
2023-02-08T13:01:56.341Z,33.60
2023-02-08T13:05:04.502Z,27.95
2023-02-08T13:08:29.824Z,25.30
2023-02-08T13:11:38.699Z,31.35
2023-02-08T13:14:45.241Z,30.00
2023-02-08T13:17:52.862Z,32.47
2023-02-08T13:21:00.285Z,28.52
2023-02-08T13:24:10.533Z,32.15
2023-02-08T13:27:17.313Z,28.80
2023-02-08T13:30:21.108Z,28.23
2023-02-08T13:33:30.379Z,24.80
2023-02-08T13:36:34.715Z,24.88
2023-02-08T13:39:43.171Z,24.48
2023-02-08T13:42:49.338Z,20.95
2023-02-08T13:45:53.787Z,25.75
2023-02-08T13:48:57.273Z,24.45
2023-02-08T13:51:59.104Z,22.00
2023-02-08T13:55:49.026Z,22.27
2023-02-08T13:59:02.107Z,25.60
2023-02-08T14:02:36.994Z,24.02
2023-02-08T14:05:47.377Z,27.27
2023-02-08T14:08:58.668Z,21.40
2023-02-08T14:12:04.752Z,22.95
2023-02-08T14:15:31.551Z,27.08
2023-02-08T14:18:33.428Z,23.23
2023-02-08T14:21:38.268Z,23.13
2023-02-08T14:24:42.442Z,22.65
2023-02-08T14:27:53.149Z,22.23
2023-02-08T14:30:59.840Z,22.00
2023-02-08T14:34:02.168Z,22.20
2023-02-08T14:37:25.889Z,20.35
2023-02-08T14:40:50.354Z,24.05
2023-02-08T14:43:52.174Z,20.05
2023-02-08T14:46:55.434Z,20.00
2023-02-08T14:50:05.704Z,18.95
2023-02-08T14:53:29.502Z,20.25
2023-02-08T14:56:35.084Z,18.45
2023-02-08T14:59:37.122Z,19.45
2023-02-08T15:02:44.689Z,20.15
2023-02-08T15:06:14.271Z,16.67
2023-02-08T15:09:20.046Z,12.55
2023-02-08T15:12:26.536Z,19.52
2023-02-08T15:15:32.232Z,16.17
2023-02-08T15:18:36.488Z,15.90
2023-02-08T15:21:38.793Z,17.13
2023-02-08T15:24:49.811Z,13.65
2023-02-08T15:27:54.490Z,15.32
2023-02-08T15:30:59.403Z,16.58
2023-02-08T15:34:03.745Z,13.70
2023-02-08T15:37:06.840Z,20.25
2023-02-08T15:40:23.053Z,18.42
2023-02-08T15:43:25.504Z,14.73
2023-02-08T15:46:28.580Z,16.48
2023-02-08T15:49:35.530Z,14.27
2023-02-08T15:52:37.833Z,14.73
2023-02-08T15:55:47.013Z,15.55
2023-02-08T15:58:52.008Z,13.95
2023-02-08T16:01:55.491Z,13.45
2023-02-08T16:05:03.688Z,18.42
2023-02-08T16:08:20.799Z,13.97
2023-02-08T16:11:27.364Z,13.85
2023-02-08T16:14:30.911Z,13.77
2023-02-08T16:17:42.745Z,12.40
2023-02-08T16:20:56.917Z,12.32
2023-02-08T16:24:00.732Z,11.73
2023-02-08T16:27:05.460Z,10.23
2023-02-08T16:30:19.451Z,9.98
2023-02-08T16:33:22.079Z,11.55
2023-02-08T16:36:30.468Z,11.32
2023-02-08T16:39:38.667Z,11.15
2023-02-08T16:42:44.450Z,13.33
2023-02-08T16:49:57.958Z,12.65
2023-02-08T16:53:04.016Z,10.93
2023-02-08T16:56:09.063Z,11.88
2023-02-08T16:59:12.313Z,13.18
2023-02-08T17:02:15.577Z,10.90
2023-02-08T17:05:18.857Z,12.30
2023-02-08T17:08:22.524Z,16.33
2023-02-08T17:11:25.141Z,11.60
2023-02-08T17:14:28.675Z,10.95
2023-02-08T17:17:31.183Z,13.07
2023-02-08T17:20:34.794Z,14.18
2023-02-08T17:23:38.620Z,14.38
2023-02-08T17:26:43.753Z,15.80
2023-02-08T17:29:46.392Z,13.30
2023-02-08T17:32:50.235Z,14.90
2023-02-08T17:35:53.287Z,14.68
2023-02-08T17:38:58.806Z,15.07
2023-02-08T17:42:02.887Z,15.63
2023-02-08T17:45:06.411Z,15.18
2023-02-08T17:48:09.275Z,13.48
2023-02-08T17:51:20.292Z,15.20
2023-02-08T17:54:30.461Z,11.43
2023-02-08T17:57:35.949Z,12.93
2023-02-08T18:00:40.790Z,11.38
2023-02-08T18:03:43.505Z,13.35
2023-02-08T18:06:46.026Z,12.73
2023-02-08T18:09:52.449Z,12.60
2023-02-08T18:12:58.565Z,17.75
2023-02-08T18:16:07.322Z,11.43
2023-02-08T18:19:10.379Z,11.68
2023-02-08T18:22:12.638Z,13.27
2023-02-08T18:25:19.419Z,12.93
2023-02-08T18:28:24.117Z,17.58
2023-02-08T18:31:27.732Z,12.65
2023-02-08T18:34:31.419Z,14.30
2023-02-08T18:37:37.056Z,13.05
2023-02-08T18:40:42.680Z,14.95
2023-02-08T18:43:49.702Z,13.30
2023-02-08T18:46:55.775Z,15.20
2023-02-08T18:49:58.969Z,16.15
2023-02-08T18:53:03.602Z,17.30
2023-02-08T18:56:13.375Z,18.83
2023-02-08T18:59:16.684Z,14.55
2023-02-08T19:02:21.540Z,13.57
2023-02-08T19:05:24.988Z,17.40
2023-02-08T19:08:28.920Z,17.55
2023-02-08T19:11:36.351Z,15.98
2023-02-08T19:14:40.519Z,16.55
2023-02-08T19:17:43.507Z,17.23
2023-02-08T19:20:47.982Z,18.65
2023-02-08T19:23:52.337Z,17.70
2023-02-08T19:26:57.596Z,15.95
2023-02-08T19:30:00.233Z,20.45
2023-02-08T19:33:04.016Z,15.13
2023-02-08T19:36:08.523Z,17.30
2023-02-08T19:39:15.646Z,17.75
2023-02-08T19:42:23.098Z,17.38
2023-02-08T19:45:29.347Z,15.63
2023-02-08T19:48:32.355Z,17.73
2023-02-08T19:51:36.388Z,16.02
2023-02-08T19:54:39.455Z,15.52
2023-02-08T19:57:44.123Z,18.42
2023-02-08T20:00:49.443Z,18.77
2023-02-08T20:03:54.389Z,19.27
2023-02-08T20:07:00.133Z,19.05
2023-02-08T20:10:02.812Z,16.63
2023-02-08T20:13:08.416Z,15.85
2023-02-08T20:16:11.093Z,16.95
2023-02-08T20:19:14.419Z,15.38
2023-02-08T20:22:17.440Z,16.08
2023-02-08T20:25:21.502Z,16.48
2023-02-08T20:28:25.804Z,21.10
2023-02-08T20:31:31.027Z,15.63
2023-02-08T20:34:38.121Z,15.23
2023-02-08T20:37:42.858Z,17.40
2023-02-08T20:40:46.373Z,16.27
2023-02-08T20:43:50.749Z,14.63
2023-02-08T20:46:53.284Z,15.50
2023-02-08T20:49:56.018Z,13.60
2023-02-08T20:52:58.938Z,16.90
2023-02-08T20:56:06.366Z,14.10
2023-02-08T20:59:12.441Z,15.57
2023-02-08T21:02:20.397Z,14.70
2023-02-08T21:05:22.687Z,15.23
2023-02-08T21:08:27.469Z,14.85
2023-02-08T21:11:31.521Z,16.98
2023-02-08T21:14:35.329Z,15.95
2023-02-08T21:17:41.051Z,16.63
2023-02-08T21:20:43.227Z,16.38
2023-02-08T21:23:50.333Z,21.08
2023-02-08T21:26:53.979Z,17.40
2023-02-08T21:29:57.696Z,17.77
2023-02-08T21:32:59.539Z,17.30
2023-02-08T21:36:05.998Z,19.80
2023-02-08T21:39:08.471Z,26.02
2023-02-08T21:42:13.296Z,16.52
2023-02-08T21:45:21.030Z,18.25
2023-02-08T21:48:22.876Z,16.23
2023-02-08T21:51:26.612Z,22.42
2023-02-08T21:54:33.087Z,17.85
2023-02-08T21:57:36.578Z,17.40
2023-02-08T22:00:39.869Z,17.13
2023-02-08T22:03:41.930Z,17.67
2023-02-08T22:06:45.929Z,16.50
2023-02-08T22:09:47.897Z,15.13
2023-02-08T22:12:52.940Z,19.77
2023-02-08T22:16:00.698Z,18.25
2023-02-08T22:19:02.535Z,16.88
2023-02-08T22:22:04.472Z,14.60
2023-02-08T22:25:06.997Z,16.52
2023-02-08T22:28:11.145Z,14.80
2023-02-08T22:31:16.326Z,15.48
2023-02-08T22:34:18.744Z,14.15
2023-02-08T22:37:22.095Z,18.50
2023-02-08T22:40:32.484Z,16.10
2023-02-08T22:43:35.957Z,19.50
2023-02-08T22:46:43.450Z,18.80
2023-02-08T22:49:46.924Z,18.08
2023-02-08T22:52:48.798Z,17.13
2023-02-08T22:55:53.456Z,19.45
2023-02-08T22:59:02.886Z,18.63
2023-02-08T23:02:13.779Z,17.88
2023-02-08T23:05:17.695Z,16.27
2023-02-08T23:08:21.134Z,18.83
2023-02-08T23:11:22.897Z,18.30
2023-02-08T23:14:25.642Z,23.67
2023-02-08T23:17:29.504Z,18.23
2023-02-08T23:20:33.574Z,15.40
2023-02-08T23:23:39.141Z,19.15
2023-02-08T23:26:41.430Z,16.17
2023-02-08T23:29:45.572Z,16.05
2023-02-08T23:32:51.367Z,14.18
2023-02-08T23:36:01.805Z,15.82
2023-02-08T23:39:03.893Z,14.73
2023-02-08T23:42:08.747Z,15.07
2023-02-08T23:45:17.649Z,13.90
2023-02-08T23:51:24.834Z,14.23
2023-02-08T23:54:30.545Z,15.68
2023-02-08T23:57:33.790Z,18.00
